createdAt,value
2019-04-14T00:02:23.572Z,102394.44
2019-04-14T00:04:57.207Z,102400.06
2019-04-14T00:07:27.724Z,102397.50
2019-04-14T00:09:58.431Z,102387.16
2019-04-14T00:12:30.046Z,102376.81
2019-04-14T00:14:59.844Z,102377.67
2019-04-14T00:17:30.259Z,102374.64
2019-04-14T00:20:00.974Z,102372.08
2019-04-14T00:22:32.168Z,102365.16
2019-04-14T00:25:02.389Z,102362.60
2019-04-14T00:27:32.374Z,102360.00
2019-04-14T00:30:01.721Z,102354.38
2019-04-14T00:32:33.423Z,102346.60
2019-04-14T00:35:21.024Z,102341.02
2019-04-14T00:38:10.528Z,102331.97
2019-04-14T00:40:45.494Z,102336.72
2019-04-14T00:43:33.718Z,102338.05
2019-04-14T00:46:14.656Z,102333.72
2019-04-14T00:48:45.169Z,102329.44
2019-04-14T00:51:15.573Z,102325.55
2019-04-14T00:53:44.970Z,102336.81
2019-04-14T00:56:15.075Z,102334.66
2019-04-14T00:58:45.365Z,102339.44
2019-04-14T01:01:15.461Z,102338.14
2019-04-14T01:03:45.886Z,102338.14
2019-04-14T01:06:16.352Z,102332.98
2019-04-14T01:08:46.783Z,102339.89
2019-04-14T01:11:16.186Z,102352.86
2019-04-14T01:13:46.562Z,102345.98
2019-04-14T01:16:20.187Z,102342.92
2019-04-14T01:18:49.332Z,102340.79
2019-04-14T01:21:19.638Z,102340.36
2019-04-14T01:23:50.216Z,102343.41
2019-04-14T01:26:20.361Z,102348.16
2019-04-14T01:28:50.453Z,102353.38
2019-04-14T01:31:23.078Z,102340.84
2019-04-14T01:33:53.383Z,102363.75
2019-04-14T01:36:23.501Z,102363.77
2019-04-14T01:38:53.601Z,102356.89
2019-04-14T01:41:23.932Z,102362.08
2019-04-14T01:43:53.928Z,102362.53
2019-04-14T01:46:27.806Z,102362.99
2019-04-14T01:48:54.337Z,102361.29
2019-04-14T01:51:46.366Z,102375.98
2019-04-14T01:54:34.512Z,102378.16
2019-04-14T01:57:22.074Z,102376.87
2019-04-14T01:59:54.713Z,102388.12
2019-04-14T02:02:27.015Z,102395.03
2019-04-14T02:04:57.483Z,102395.50
2019-04-14T02:07:27.658Z,102390.74
2019-04-14T02:09:57.549Z,102397.22
2019-04-14T02:12:27.886Z,102402.84
2019-04-14T02:14:58.270Z,102398.52
2019-04-14T02:17:28.516Z,102405.89
2019-04-14T02:19:58.968Z,102403.72
2019-04-14T02:22:31.258Z,102404.61
2019-04-14T02:25:01.440Z,102405.47
2019-04-14T02:27:31.752Z,102406.36
2019-04-14T02:30:03.584Z,102403.80
2019-04-14T02:32:57.354Z,102402.06
2019-04-14T02:38:12.304Z,102395.63
2019-04-14T02:40:39.267Z,102395.22
2019-04-14T02:43:06.894Z,102399.53
2019-04-14T02:45:50.093Z,102395.67
2019-04-14T02:48:18.364Z,102389.19
2019-04-14T02:55:42.532Z,102391.84
2019-04-14T02:58:16.144Z,102382.80
2019-04-14T03:00:42.070Z,102387.97
2019-04-14T03:08:25.648Z,102392.34
2019-04-14T03:10:47.213Z,102392.77
2019-04-14T03:13:27.047Z,102396.22
2019-04-14T03:15:55.068Z,102392.77
2019-04-14T03:18:44.866Z,102400.13
2019-04-14T03:24:32.706Z,102394.53
2019-04-14T03:27:13.473Z,102391.07
2019-04-14T03:29:43.712Z,102391.52
2019-04-14T03:35:09.767Z,102387.25
2019-04-14T03:42:37.704Z,102391.58
2019-04-14T03:44:59.013Z,102390.73
2019-04-14T03:50:09.699Z,102388.59
2019-04-14T03:52:37.840Z,102386.89
2019-04-14T03:54:56.721Z,102385.59
2019-04-14T03:57:14.919Z,102381.70
2019-04-14T03:59:46.272Z,102384.29
2019-04-14T04:02:16.088Z,102379.16
2019-04-14T04:04:46.613Z,102380.02
2019-04-14T04:07:17.082Z,102382.63
2019-04-14T04:09:54.661Z,102376.58
2019-04-14T04:12:24.680Z,102376.59
2019-04-14T04:14:55.201Z,102371.42
2019-04-14T04:17:41.035Z,102374.89
2019-04-14T04:20:41.717Z,102370.56
2019-04-14T04:23:38.832Z,102362.80
2019-04-14T04:26:23.401Z,102369.27
2019-04-14T04:29:17.955Z,102365.81
2019-04-14T04:32:08.580Z,102366.69
2019-04-14T04:34:42.385Z,102364.95
2019-04-14T04:37:27.851Z,102370.58
2019-04-14T04:39:58.396Z,102369.30
2019-04-14T04:42:28.713Z,102361.12
2019-04-14T04:44:58.098Z,102355.94
2019-04-14T04:47:27.424Z,102351.64
2019-04-14T04:49:57.584Z,102353.36
2019-04-14T04:52:28.093Z,102351.64
2019-04-14T04:54:58.095Z,102349.50
2019-04-14T04:57:28.525Z,102368.91
2019-04-14T04:59:58.123Z,102367.60
2019-04-14T05:02:28.712Z,102370.22
2019-04-14T05:04:59.274Z,102380.13
2019-04-14T05:07:31.608Z,102383.61
2019-04-14T05:10:26.417Z,102389.21
2019-04-14T05:13:05.202Z,102393.08
2019-04-14T05:15:55.524Z,102408.63
2019-04-14T05:18:26.758Z,102397.84
2019-04-14T05:20:57.345Z,102398.72
2019-04-14T05:23:27.811Z,102395.28
2019-04-14T05:25:58.140Z,102397.88
2019-04-14T05:28:28.742Z,102396.58
2019-04-14T05:30:58.932Z,102403.50
2019-04-14T05:33:29.352Z,102399.60
2019-04-14T05:35:59.851Z,102402.20
2019-04-14T05:38:31.898Z,102405.19
2019-04-14T05:41:00.455Z,102401.33
2019-04-14T05:43:41.520Z,102403.92
2019-04-14T05:46:03.388Z,102415.59
2019-04-14T05:48:35.758Z,102413.41
2019-04-14T05:51:06.297Z,102415.56
2019-04-14T05:53:35.774Z,102418.16
2019-04-14T05:56:05.790Z,102411.24
2019-04-14T05:58:36.129Z,102415.99
2019-04-14T06:01:06.858Z,102409.95
2019-04-14T06:03:36.434Z,102408.66
2019-04-14T06:06:05.771Z,102410.81
2019-04-14T06:08:35.168Z,102416.43
2019-04-14T06:11:04.470Z,102414.25
2019-04-14T06:13:33.823Z,102419.44
2019-04-14T06:16:03.175Z,102422.89
2019-04-14T06:18:32.516Z,102417.26
2019-04-14T06:21:01.904Z,102411.67
2019-04-14T06:23:31.221Z,102417.27
2019-04-14T06:26:01.039Z,102416.81
2019-04-14T06:28:30.383Z,102412.94
2019-04-14T06:31:23.936Z,102420.71
2019-04-14T06:34:06.008Z,102419.83
2019-04-14T06:36:42.819Z,102419.83
2019-04-14T06:39:15.613Z,102417.25
2019-04-14T06:41:44.967Z,102420.25
2019-04-14T06:44:14.321Z,102410.76
2019-04-14T06:46:43.906Z,102413.36
2019-04-14T06:49:13.232Z,102414.62
2019-04-14T06:51:42.576Z,102416.34
2019-04-14T06:54:11.986Z,102415.05
2019-04-14T06:56:41.321Z,102414.61
2019-04-14T06:59:10.668Z,102414.59
2019-04-14T07:01:40.001Z,102417.61
2019-04-14T07:04:09.350Z,102415.88
2019-04-14T07:06:38.674Z,102412.84
2019-04-14T07:09:08.170Z,102416.27
2019-04-14T07:11:37.492Z,102414.98
2019-04-14T07:14:06.866Z,102420.13
2019-04-14T07:16:36.206Z,102423.14
2019-04-14T07:19:05.576Z,102416.21
2019-04-14T07:21:34.924Z,102420.52
2019-04-14T07:24:04.357Z,102417.48
2019-04-14T07:26:33.735Z,102420.06
2019-04-14T07:29:03.141Z,102413.57
2019-04-14T07:31:48.979Z,102404.92
2019-04-14T07:34:37.234Z,102401.91
2019-04-14T07:37:35.507Z,102398.00
2019-04-14T07:40:23.399Z,102394.98
2019-04-14T07:43:14.488Z,102385.89
2019-04-14T07:45:58.583Z,102397.99
2019-04-14T07:48:35.475Z,102382.86
2019-04-14T07:51:39.007Z,102390.16
2019-04-14T07:54:13.709Z,102388.84
2019-04-14T07:56:56.587Z,102384.92
2019-04-14T07:59:51.009Z,102388.77
2019-04-14T08:02:48.460Z,102391.29
2019-04-14T08:05:27.696Z,102387.35
2019-04-14T08:07:57.194Z,102393.36
2019-04-14T08:10:26.683Z,102389.42
2019-04-14T08:12:56.119Z,102378.59
2019-04-14T08:15:25.750Z,102381.59
2019-04-14T08:17:55.143Z,102377.66
2019-04-14T08:20:27.674Z,102371.53
2019-04-14T08:22:57.736Z,102365.86
2019-04-14T08:25:26.605Z,102367.56
2019-04-14T08:27:55.913Z,102369.23
2019-04-14T08:30:25.391Z,102366.98
2019-04-14T08:32:54.763Z,102360.87
2019-04-14T08:35:24.176Z,102364.67
2019-04-14T08:37:53.521Z,102356.85
2019-04-14T08:40:22.939Z,102351.20
2019-04-14T08:43:14.294Z,102343.85
2019-04-14T08:45:57.110Z,102348.54
2019-04-14T08:48:45.151Z,102345.02
2019-04-14T08:51:20.324Z,102332.00
2019-04-14T08:54:12.721Z,102333.70
2019-04-14T08:57:10.298Z,102331.03
2019-04-14T08:59:59.926Z,102332.66
2019-04-14T09:02:40.311Z,102336.05
2019-04-14T09:05:28.584Z,102338.52
2019-04-14T09:08:09.955Z,102328.03
2019-04-14T09:10:41.654Z,102326.25
2019-04-14T09:13:10.962Z,102326.17
2019-04-14T09:15:40.292Z,102329.47
2019-04-14T09:18:09.672Z,102320.25
2019-04-14T09:20:51.418Z,102314.96
2019-04-14T09:23:10.074Z,102311.41
2019-04-14T09:25:39.403Z,102316.47
2019-04-14T09:28:08.752Z,102325.00
2019-04-14T09:30:38.111Z,102318.98
2019-04-14T09:33:07.474Z,102312.48
2019-04-14T09:35:38.996Z,102310.75
2019-04-14T09:38:08.335Z,102317.67
2019-04-14T09:40:37.682Z,102328.86
2019-04-14T09:43:07.042Z,102324.48
2019-04-14T09:45:36.363Z,102315.33
2019-04-14T09:48:05.805Z,102316.16
2019-04-14T09:50:35.144Z,102316.58
2019-04-14T09:53:04.482Z,102315.67
2019-04-14T09:55:34.844Z,102319.52
2019-04-14T09:58:04.197Z,102301.31
2019-04-14T10:00:34.911Z,102292.17
2019-04-14T10:03:04.339Z,102285.19
2019-04-14T10:05:33.693Z,102284.61
2019-04-14T10:08:03.017Z,102268.95
2019-04-14T10:10:32.382Z,102261.86
2019-04-14T10:13:01.732Z,102252.11
2019-04-14T10:15:31.099Z,102238.45
2019-04-14T10:18:00.428Z,102235.66
2019-04-14T10:20:29.773Z,102218.14
2019-04-14T10:22:59.105Z,102179.91
2019-04-14T10:25:28.445Z,102171.25
2019-04-14T10:27:57.800Z,102195.14
2019-04-14T10:30:27.151Z,102204.25
2019-04-14T10:32:56.500Z,102210.66
2019-04-14T10:35:25.892Z,102221.38
2019-04-14T10:37:55.260Z,102252.05
2019-04-14T10:40:24.630Z,102245.48
2019-04-14T10:42:53.991Z,102257.59
2019-04-14T10:45:23.303Z,102277.42
2019-04-14T10:47:52.666Z,102307.84
2019-04-14T10:50:30.659Z,102328.80
2019-04-14T10:52:53.057Z,102332.80
2019-04-14T10:55:22.433Z,102330.70
2019-04-14T10:57:51.765Z,102316.93
2019-04-14T11:00:22.588Z,102317.45
2019-04-14T11:02:51.919Z,102294.09
2019-04-14T11:05:21.665Z,102272.05
2019-04-14T11:07:53.131Z,102270.79
2019-04-14T11:10:22.483Z,102295.45
2019-04-14T11:12:53.818Z,102309.70
2019-04-14T11:15:23.157Z,102306.24
2019-04-14T11:17:52.507Z,102301.11
2019-04-14T11:20:21.869Z,102301.64
2019-04-14T11:23:02.854Z,102299.09
2019-04-14T11:25:22.313Z,102290.00
2019-04-14T11:27:51.624Z,102287.00
2019-04-14T11:30:22.018Z,102281.86
2019-04-14T11:33:00.388Z,102287.06
2019-04-14T11:36:03.931Z,102307.45
2019-04-14T11:38:39.889Z,102316.55
2019-04-14T11:41:13.188Z,102309.92
2019-04-14T11:43:42.564Z,102311.61
2019-04-14T11:46:11.951Z,102312.42
2019-04-14T11:48:41.272Z,102310.22
2019-04-14T11:51:10.601Z,102291.61
2019-04-14T11:53:40.089Z,102281.16
2019-04-14T11:56:09.525Z,102282.84
2019-04-14T11:58:38.942Z,102287.21
2019-04-14T12:01:30.160Z,102296.33
2019-04-14T12:04:13.130Z,102296.39
2019-04-14T12:07:07.424Z,102303.87
2019-04-14T12:09:46.381Z,102300.87
2019-04-14T12:12:15.726Z,102312.11
2019-04-14T12:14:45.101Z,102324.73
2019-04-14T12:17:14.480Z,102346.03
2019-04-14T12:19:43.819Z,102360.83
2019-04-14T12:22:13.168Z,102362.22
2019-04-14T12:24:42.519Z,102366.18
2019-04-14T12:27:11.883Z,102367.14
2019-04-14T12:29:43.376Z,102380.59
2019-04-14T12:32:12.996Z,102380.62
2019-04-14T12:34:42.471Z,102369.41
2019-04-14T12:37:11.831Z,102371.95
2019-04-14T12:39:41.187Z,102379.28
2019-04-14T12:42:38.528Z,102378.84
2019-04-14T12:45:26.052Z,102381.83
2019-04-14T12:48:01.922Z,102387.37
2019-04-14T12:50:44.156Z,102378.98
2019-04-14T12:53:13.487Z,102371.36
2019-04-14T12:55:42.846Z,102364.58
2019-04-14T12:58:13.374Z,102340.45
2019-04-14T13:00:46.025Z,102329.42
2019-04-14T13:03:15.384Z,102330.66
2019-04-14T13:05:44.724Z,102339.24
2019-04-14T13:08:14.079Z,102330.13
2019-04-14T13:10:44.444Z,102331.86
2019-04-14T13:13:13.823Z,102332.61
2019-04-14T13:15:43.196Z,102328.14
2019-04-14T13:18:12.565Z,102324.50
2019-04-14T13:20:44.217Z,102328.26
2019-04-14T13:23:13.548Z,102330.30
2019-04-14T13:25:42.910Z,102330.16
2019-04-14T13:28:12.231Z,102334.83
2019-04-14T13:30:44.123Z,102332.72
2019-04-14T13:33:13.481Z,102332.03
2019-04-14T13:35:42.840Z,102333.89
2019-04-14T13:38:12.193Z,102327.95
2019-04-14T13:40:41.735Z,102341.09
2019-04-14T13:43:11.031Z,102349.91
2019-04-14T13:45:41.416Z,102358.34
2019-04-14T13:48:10.790Z,102366.74
2019-04-14T13:50:40.184Z,102373.36
2019-04-14T13:53:09.537Z,102379.61
2019-04-14T13:55:39.552Z,102381.06
2019-04-14T13:58:08.948Z,102387.41
2019-04-14T14:00:38.287Z,102387.41
2019-04-14T14:03:07.666Z,102386.27
2019-04-14T14:05:37.021Z,102391.66
2019-04-14T14:08:09.623Z,102390.89
2019-04-14T14:10:41.103Z,102381.45
2019-04-14T14:13:29.801Z,102384.14
2019-04-14T14:16:16.831Z,102381.16
2019-04-14T14:19:11.236Z,102386.36
2019-04-14T14:21:53.869Z,102378.17
2019-04-14T14:24:30.089Z,102361.70
2019-04-14T14:26:59.741Z,102350.77
2019-04-14T14:29:29.416Z,102338.53
2019-04-14T14:31:59.509Z,102340.12
2019-04-14T14:34:28.881Z,102334.81
2019-04-14T14:36:58.258Z,102337.31
2019-04-14T14:39:27.611Z,102331.08
2019-04-14T14:41:57.041Z,102332.70
2019-04-14T14:44:31.431Z,102330.00
2019-04-14T14:47:11.693Z,102322.94
2019-04-14T14:50:08.767Z,102311.81
2019-04-14T14:52:39.280Z,102299.74
2019-04-14T14:55:08.701Z,102284.52
2019-04-14T14:57:38.037Z,102275.69
2019-04-14T15:00:10.147Z,102259.20
2019-04-14T15:02:39.497Z,102256.76
2019-04-14T15:05:08.885Z,102249.80
2019-04-14T15:07:38.213Z,102238.65
2019-04-14T15:10:07.704Z,102238.65
2019-04-14T15:12:37.075Z,102226.58
2019-04-14T15:15:07.022Z,102220.23
2019-04-14T15:17:36.380Z,102219.47
2019-04-14T15:20:06.173Z,102231.72
2019-04-14T15:22:35.541Z,102231.72
2019-04-14T15:25:05.106Z,102229.78
2019-04-14T15:27:34.482Z,102230.02
2019-04-14T15:30:05.682Z,102212.45
2019-04-14T15:32:35.058Z,102215.26
2019-04-14T15:35:04.628Z,102209.26
2019-04-14T15:37:34.021Z,102209.68
2019-04-14T15:40:03.368Z,102205.88
2019-04-14T15:42:32.733Z,102205.88
2019-04-14T15:45:02.073Z,102205.07
2019-04-14T15:47:31.430Z,102196.02
2019-04-14T15:50:00.807Z,102197.24
2019-04-14T15:52:30.136Z,102202.96
2019-04-14T15:54:59.517Z,102207.55
2019-04-14T15:57:36.725Z,102209.89
2019-04-14T16:00:21.372Z,102204.95
2019-04-14T16:03:18.834Z,102204.95
2019-04-14T16:06:07.136Z,102198.07
2019-04-14T16:08:45.412Z,102182.73
2019-04-14T16:11:21.090Z,102178.03
2019-04-14T16:14:07.906Z,102178.03
2019-04-14T16:17:05.240Z,102177.31
2019-04-14T16:19:56.642Z,102170.84
2019-04-14T16:22:26.023Z,102159.89
2019-04-14T16:24:55.377Z,102159.89
2019-04-14T16:27:43.799Z,102161.44
2019-04-14T16:30:41.328Z,102146.89
2019-04-14T16:33:18.263Z,102146.89
2019-04-14T16:35:47.908Z,102153.84
2019-04-14T16:38:17.438Z,102140.94
2019-04-14T16:40:48.370Z,102151.63
2019-04-14T16:43:17.730Z,102146.22
2019-04-14T16:45:47.065Z,102133.48
2019-04-14T16:48:16.435Z,102133.48
2019-04-14T16:50:45.760Z,102145.05
2019-04-14T16:53:29.782Z,102146.61
2019-04-14T16:56:16.804Z,102123.86
2019-04-14T16:58:54.730Z,102127.75
2019-04-14T17:01:28.221Z,102130.31
2019-04-14T17:03:57.581Z,102128.30
2019-04-14T17:06:28.933Z,102123.52
2019-04-14T17:08:58.314Z,102123.52
2019-04-14T17:11:27.690Z,102129.95
2019-04-14T17:14:19.106Z,102129.95
2019-04-14T17:17:10.776Z,102122.52
2019-04-14T17:19:48.338Z,102126.40
2019-04-14T17:22:22.946Z,102113.00
2019-04-14T17:25:09.718Z,102107.45
2019-04-14T17:28:02.143Z,102098.91
2019-04-14T17:30:37.376Z,102094.45
2019-04-14T17:33:14.759Z,102094.45
2019-04-14T17:36:03.230Z,102114.34
2019-04-14T17:39:09.568Z,102111.51
2019-04-14T17:42:18.739Z,102087.07
2019-04-14T17:45:12.833Z,102087.07
2019-04-14T17:47:50.384Z,102089.82
2019-04-14T17:50:50.864Z,102092.94
2019-04-14T17:53:39.137Z,102101.19
2019-04-14T17:56:15.824Z,102101.69
2019-04-14T17:59:06.988Z,102101.69
2019-04-14T18:01:58.340Z,102104.11
2019-04-14T18:04:35.026Z,102113.04
2019-04-14T18:07:29.204Z,102120.66
2019-04-14T18:10:29.538Z,102128.05
2019-04-14T18:13:09.414Z,102125.55
2019-04-14T18:16:15.994Z,102113.55
2019-04-14T18:19:03.881Z,102120.98
2019-04-14T18:21:33.245Z,102134.78
2019-04-14T18:24:02.755Z,102134.78
2019-04-14T18:26:32.195Z,102144.14
2019-04-14T18:29:18.937Z,102140.87
2019-04-14T18:32:06.083Z,102131.47
2019-04-14T18:34:49.512Z,102127.30
2019-04-14T18:37:30.804Z,102136.61
2019-04-14T18:40:16.201Z,102133.76
2019-04-14T18:42:51.941Z,102130.02
2019-04-14T18:45:29.925Z,102130.58
2019-04-14T18:48:14.263Z,102141.92
2019-04-14T18:51:17.784Z,102133.47
2019-04-14T18:54:04.824Z,102127.09
2019-04-14T18:56:56.648Z,102136.79
2019-04-14T18:59:43.670Z,102130.41
2019-04-14T19:02:14.348Z,102127.95
2019-04-14T19:04:43.685Z,102134.56
2019-04-14T19:07:13.026Z,102132.50
2019-04-14T19:09:42.366Z,102132.61
2019-04-14T19:12:29.347Z,102135.27
2019-04-14T19:15:05.973Z,102149.18
2019-04-14T19:17:47.995Z,102142.77
2019-04-14T19:20:18.228Z,102134.60
2019-04-14T19:22:47.585Z,102135.09
2019-04-14T19:25:16.916Z,102139.08
2019-04-14T19:27:46.238Z,102147.78
2019-04-14T19:30:15.886Z,102148.27
2019-04-14T19:32:45.205Z,102153.09
2019-04-14T19:35:14.561Z,102150.97
2019-04-14T19:37:43.895Z,102162.70
2019-04-14T19:40:13.467Z,102164.05
2019-04-14T19:42:42.803Z,102169.25
2019-04-14T19:45:12.151Z,102171.45
2019-04-14T19:47:41.510Z,102174.09
2019-04-14T19:50:11.069Z,102170.20
2019-04-14T19:52:40.420Z,102168.04
2019-04-14T19:55:19.753Z,102170.20
2019-04-14T19:57:40.956Z,102159.42
2019-04-14T20:00:10.621Z,102168.52
2019-04-14T20:02:39.968Z,102169.42
2019-04-14T20:05:09.433Z,102175.05
2019-04-14T20:07:38.812Z,102182.41
2019-04-14T20:10:09.350Z,102182.45
2019-04-14T20:12:38.749Z,102184.18
2019-04-14T20:15:09.998Z,102182.88
2019-04-14T20:18:16.628Z,102180.77
2019-04-14T20:20:53.327Z,102187.25
2019-04-14T20:23:47.269Z,102185.52
2019-04-14T20:26:41.599Z,102193.34
2019-04-14T20:29:16.927Z,102188.59
2019-04-14T20:32:08.043Z,102186.39
2019-04-14T20:34:37.498Z,102192.05
2019-04-14T20:37:06.878Z,102196.37
2019-04-14T20:39:36.821Z,102204.17
2019-04-14T20:42:06.875Z,102210.66
2019-04-14T20:44:36.245Z,102202.48
2019-04-14T20:47:07.427Z,102194.70
2019-04-14T20:49:36.787Z,102188.20
2019-04-14T20:52:06.259Z,102177.44
2019-04-14T20:54:35.575Z,102165.80
2019-04-14T20:57:04.939Z,102168.78
2019-04-14T20:59:34.282Z,102177.44
2019-04-14T21:02:14.527Z,102173.11
2019-04-14T21:04:54.609Z,102175.74
2019-04-14T21:07:48.947Z,102174.88
2019-04-14T21:10:39.717Z,102175.31
2019-04-14T21:13:17.675Z,102181.80
2019-04-14T21:15:51.055Z,102183.11
2019-04-14T21:18:39.931Z,102185.70
2019-04-14T21:21:27.130Z,102199.58
2019-04-14T21:24:14.254Z,102204.34
2019-04-14T21:27:11.851Z,102205.64
2019-04-14T21:30:09.145Z,102194.82
2019-04-14T21:32:46.738Z,102200.88
2019-04-14T21:35:50.213Z,102206.94
2019-04-14T21:38:38.484Z,102213.42
2019-04-14T21:41:12.560Z,102211.73
2019-04-14T21:43:41.960Z,102208.70
2019-04-14T21:46:11.292Z,102210.86
2019-04-14T21:48:40.643Z,102216.48
2019-04-14T21:51:09.964Z,102213.89
2019-04-14T21:53:39.307Z,102216.91
2019-04-14T21:56:13.539Z,102209.52
2019-04-14T21:59:04.679Z,102207.36
2019-04-14T22:02:10.618Z,102206.53
2019-04-14T22:05:02.266Z,102205.23
2019-04-14T22:07:58.027Z,102206.11
2019-04-14T22:10:58.608Z,102197.02
2019-04-14T22:13:27.975Z,102198.31
2019-04-14T22:15:57.306Z,102191.00
2019-04-14T22:18:26.820Z,102200.09
2019-04-14T22:20:56.181Z,102202.72
2019-04-14T22:23:25.525Z,102210.51
2019-04-14T22:25:54.885Z,102209.69
2019-04-14T22:28:24.242Z,102204.49
2019-04-14T22:30:53.582Z,102211.84
2019-04-14T22:33:22.943Z,102216.64
2019-04-14T22:35:52.288Z,102215.35
2019-04-14T22:38:21.664Z,102211.92
2019-04-14T22:40:51.012Z,102209.77
2019-04-14T22:43:20.360Z,102202.88
2019-04-14T22:45:49.702Z,102209.80
2019-04-14T22:48:19.028Z,102203.32
2019-04-14T22:50:48.358Z,102200.80
2019-04-14T22:53:17.697Z,102203.39
2019-04-14T22:55:47.015Z,102206.89
2019-04-14T22:58:16.381Z,102197.81
2019-04-14T23:00:53.274Z,102209.05
2019-04-14T23:03:41.523Z,102209.95
2019-04-14T23:06:39.118Z,102214.28
2019-04-14T23:12:37.182Z,102208.70
2019-04-14T23:15:18.799Z,102214.31
2019-04-14T23:17:53.208Z,102204.80
2019-04-14T23:20:41.304Z,102213.88
2019-04-14T23:23:41.963Z,102211.33
2019-04-14T23:26:11.288Z,102213.05
2019-04-14T23:28:40.628Z,102219.54
2019-04-14T23:31:09.954Z,102207.87
2019-04-14T23:33:39.296Z,102212.19
2019-04-14T23:36:08.629Z,102213.92
2019-04-14T23:38:38.015Z,102201.81
2019-04-14T23:41:07.392Z,102197.06
2019-04-14T23:43:36.720Z,102197.09
2019-04-14T23:46:06.053Z,102190.61
2019-04-14T23:48:35.385Z,102194.94
2019-04-14T23:51:04.728Z,102187.16
2019-04-14T23:53:34.098Z,102189.31
2019-04-14T23:56:03.462Z,102185.00
2019-04-14T23:58:32.783Z,102179.80
